CYPW

Powell River Airport

Powell River, , Canada
METAR CYPW 221800Z 28005KT 200V310 30SM FEW008 FEW012 FEW040 08/05 A3044 RMK CF1CU1CU1 CF TR CU TR SLP313
Observed Flight Rules
Apr-22 @ 18:00 UTC (15 minutes ago) Visual Flight Rules
Wind Visibility Clouds
280° at 5 knots 30 miles
  • Few at 800' AGL
  • Few at 1,200' AGL
  • Few at 4,000' AGL
Temperatures Readings
Current 8°C / 46°F
Dewpoint 5°C / 41°F
Humidity 82%
Altimeter 30.44" Hg
Pressure 1031.3 hPa
Elevation 130
METAR CYPW 221800Z 28005KT 200V310 30SM FEW008 FEW012 FEW040 08/05 A3044 RMK CF1CU1CU1 CF TR CU TR SLP313
Observed Flight Rules
Apr-22 @ 18:00 UTC
(15 minutes ago)
VFR
Wind Visibility
280° at 5 knots 30 miles
Clouds
  • Few at 800' AGL
  • Few at 1,200' AGL
  • Few at 4,000' AGL
Temperature Dewpoint
8°C / 46°F 5°C / 41°F
Humidity Altimeter Pressure
82% 30.44" Hg 1031.3 hPa